Terminal Aerodrome Forecast
Issued by NWS Brownsville, TX

Home | Current Version | Previous Version | Text Only | Print | Product List | Glossary On
Versions: 1 2 3 4 5 6 7 8 9 10 11 12 13 14 15 16 17 18 19 20 21 22 23 24 25 26
000
FTUS44 KBRO 190520
TAFMFE
TAF
KMFE 190520Z 1906/2006 14015KT P6SM BKN015
     FM191200 15017G23KT P6SM OVC025
     FM191400 15017G23KT P6SM BKN050
     FM191600 16024G31KT P6SM BKN050
     FM200300 15015KT P6SM SCT015=

USA.gov is the U.S. government's official web portal to all federal, state and local government web resources and services.